sensor_id;sensor_type;location;lat;lon;timestamp;P1;durP1;ratioP1;P2;durP2;ratioP2
12707;SDS011;6418;50.824;4.718;2023-03-11T00:01:00;19.90;;;7.53;;
12707;SDS011;6418;50.824;4.718;2023-03-11T00:03:27;16.20;;;6.37;;
12707;SDS011;6418;50.824;4.718;2023-03-11T00:05:54;19.50;;;6.33;;
12707;SDS011;6418;50.824;4.718;2023-03-11T00:08:24;16.57;;;6.40;;
12707;SDS011;6418;50.824;4.718;2023-03-11T00:10:53;16.73;;;6.60;;
12707;SDS011;6418;50.824;4.718;2023-03-11T00:13:22;27.30;;;10.27;;
12707;SDS011;6418;50.824;4.718;2023-03-11T00:15:50;22.70;;;10.07;;
12707;SDS011;6418;50.824;4.718;2023-03-11T00:18:19;23.53;;;8.43;;
12707;SDS011;6418;50.824;4.718;2023-03-11T00:20:49;20.50;;;8.43;;
12707;SDS011;6418;50.824;4.718;2023-03-11T00:23:16;25.20;;;9.10;;
12707;SDS011;6418;50.824;4.718;2023-03-11T00:25:44;19.80;;;8.17;;
12707;SDS011;6418;50.824;4.718;2023-03-11T00:28:13;24.07;;;9.43;;
12707;SDS011;6418;50.824;4.718;2023-03-11T00:30:41;19.27;;;8.23;;
12707;SDS011;6418;50.824;4.718;2023-03-11T00:33:09;21.47;;;7.90;;
12707;SDS011;6418;50.824;4.718;2023-03-11T00:35:38;19.77;;;7.13;;
12707;SDS011;6418;50.824;4.718;2023-03-11T00:38:05;24.87;;;8.70;;
12707;SDS011;6418;50.824;4.718;2023-03-11T00:40:34;20.73;;;8.33;;
12707;SDS011;6418;50.824;4.718;2023-03-11T00:43:03;16.77;;;6.80;;
12707;SDS011;6418;50.824;4.718;2023-03-11T00:45:30;19.20;;;7.20;;
12707;SDS011;6418;50.824;4.718;2023-03-11T00:47:57;20.97;;;7.30;;
12707;SDS011;6418;50.824;4.718;2023-03-11T00:50:25;21.53;;;8.23;;
12707;SDS011;6418;50.824;4.718;2023-03-11T00:52:54;20.70;;;8.57;;
12707;SDS011;6418;50.824;4.718;2023-03-11T00:55:22;17.97;;;7.80;;
12707;SDS011;6418;50.824;4.718;2023-03-11T00:57:52;18.30;;;7.47;;
12707;SDS011;6418;50.824;4.718;2023-03-11T01:00:21;22.93;;;8.27;;
12707;SDS011;6418;50.824;4.718;2023-03-11T01:02:49;27.80;;;9.60;;
12707;SDS011;6418;50.824;4.718;2023-03-11T01:05:17;20.47;;;8.23;;
12707;SDS011;6418;50.824;4.718;2023-03-11T01:07:45;22.00;;;7.67;;
12707;SDS011;6418;50.824;4.718;2023-03-11T01:10:12;17.87;;;6.87;;
12707;SDS011;6418;50.824;4.718;2023-03-11T01:12:42;17.93;;;6.73;;
12707;SDS011;6418;50.824;4.718;2023-03-11T01:15:13;17.03;;;6.93;;
12707;SDS011;6418;50.824;4.718;2023-03-11T01:17:45;17.47;;;6.80;;
12707;SDS011;6418;50.824;4.718;2023-03-11T01:20:12;15.37;;;6.47;;
12707;SDS011;6418;50.824;4.718;2023-03-11T01:22:40;20.87;;;6.77;;
12707;SDS011;6418;50.824;4.718;2023-03-11T01:25:08;18.87;;;7.07;;
12707;SDS011;6418;50.824;4.718;2023-03-11T01:27:37;16.77;;;7.03;;
12707;SDS011;6418;50.824;4.718;2023-03-11T01:30:05;15.83;;;6.57;;
12707;SDS011;6418;50.824;4.718;2023-03-11T01:32:32;14.70;;;6.50;;
12707;SDS011;6418;50.824;4.718;2023-03-11T01:35:01;19.70;;;7.17;;
12707;SDS011;6418;50.824;4.718;2023-03-11T01:37:28;18.73;;;7.13;;
12707;SDS011;6418;50.824;4.718;2023-03-11T01:39:55;22.53;;;7.90;;
12707;SDS011;6418;50.824;4.718;2023-03-11T01:42:22;19.73;;;7.67;;
12707;SDS011;6418;50.824;4.718;2023-03-11T01:44:49;16.57;;;7.00;;
12707;SDS011;6418;50.824;4.718;2023-03-11T01:47:35;19.50;;;6.70;;
12707;SDS011;6418;50.824;4.718;2023-03-11T01:50:05;18.47;;;7.90;;
12707;SDS011;6418;50.824;4.718;2023-03-11T01:52:36;19.73;;;8.57;;
12707;SDS011;6418;50.824;4.718;2023-03-11T01:55:05;23.83;;;10.13;;
12707;SDS011;6418;50.824;4.718;2023-03-11T02:00:15;17.37;;;7.53;;
12707;SDS011;6418;50.824;4.718;2023-03-11T02:02:44;21.50;;;7.40;;
12707;SDS011;6418;50.824;4.718;2023-03-11T02:05:15;17.90;;;7.10;;
12707;SDS011;6418;50.824;4.718;2023-03-11T02:07:43;17.63;;;7.50;;
12707;SDS011;6418;50.824;4.718;2023-03-11T02:10:11;18.63;;;7.23;;
12707;SDS011;6418;50.824;4.718;2023-03-11T02:12:39;21.90;;;7.60;;
12707;SDS011;6418;50.824;4.718;2023-03-11T02:15:08;19.17;;;7.40;;
12707;SDS011;6418;50.824;4.718;2023-03-11T02:17:38;22.37;;;6.77;;
12707;SDS011;6418;50.824;4.718;2023-03-11T02:20:10;18.93;;;7.50;;
12707;SDS011;6418;50.824;4.718;2023-03-11T02:22:45;13.80;;;6.13;;
12707;SDS011;6418;50.824;4.718;2023-03-11T02:25:16;23.27;;;6.53;;
12707;SDS011;6418;50.824;4.718;2023-03-11T02:27:51;15.87;;;6.30;;
12707;SDS011;6418;50.824;4.718;2023-03-11T02:30:19;13.53;;;6.40;;
12707;SDS011;6418;50.824;4.718;2023-03-11T02:32:47;20.83;;;7.30;;
12707;SDS011;6418;50.824;4.718;2023-03-11T02:35:15;18.43;;;7.67;;
12707;SDS011;6418;50.824;4.718;2023-03-11T02:37:43;17.73;;;7.80;;
12707;SDS011;6418;50.824;4.718;2023-03-11T02:43:18;21.53;;;8.43;;
12707;SDS011;6418;50.824;4.718;2023-03-11T02:45:48;17.43;;;7.93;;
12707;SDS011;6418;50.824;4.718;2023-03-11T02:48:16;16.60;;;7.90;;
12707;SDS011;6418;50.824;4.718;2023-03-11T02:50:44;15.63;;;7.57;;
12707;SDS011;6418;50.824;4.718;2023-03-11T02:53:12;18.50;;;7.27;;
12707;SDS011;6418;50.824;4.718;2023-03-11T02:55:39;21.63;;;8.37;;
12707;SDS011;6418;50.824;4.718;2023-03-11T02:58:06;23.67;;;9.47;;
12707;SDS011;6418;50.824;4.718;2023-03-11T03:00:34;20.00;;;9.47;;
12707;SDS011;6418;50.824;4.718;2023-03-11T03:03:02;31.87;;;9.10;;
12707;SDS011;6418;50.824;4.718;2023-03-11T03:05:29;24.03;;;9.40;;
12707;SDS011;6418;50.824;4.718;2023-03-11T03:07:56;20.87;;;7.90;;
12707;SDS011;6418;50.824;4.718;2023-03-11T03:10:23;26.03;;;8.07;;
12707;SDS011;6418;50.824;4.718;2023-03-11T03:12:50;20.33;;;7.43;;
12707;SDS011;6418;50.824;4.718;2023-03-11T03:15:17;26.23;;;7.90;;
12707;SDS011;6418;50.824;4.718;2023-03-11T03:17:47;18.50;;;7.37;;
12707;SDS011;6418;50.824;4.718;2023-03-11T03:20:20;18.80;;;8.70;;
12707;SDS011;6418;50.824;4.718;2023-03-11T03:22:48;19.37;;;8.97;;
12707;SDS011;6418;50.824;4.718;2023-03-11T03:25:15;19.63;;;8.00;;
12707;SDS011;6418;50.824;4.718;2023-03-11T03:27:42;16.13;;;7.60;;
12707;SDS011;6418;50.824;4.718;2023-03-11T03:30:10;20.63;;;8.27;;
12707;SDS011;6418;50.824;4.718;2023-03-11T03:32:37;23.47;;;8.30;;
12707;SDS011;6418;50.824;4.718;2023-03-11T03:35:06;16.47;;;7.50;;
12707;SDS011;6418;50.824;4.718;2023-03-11T03:37:34;16.87;;;7.40;;
12707;SDS011;6418;50.824;4.718;2023-03-11T03:40:03;17.80;;;6.80;;
12707;SDS011;6418;50.824;4.718;2023-03-11T03:42:32;16.97;;;7.30;;
12707;SDS011;6418;50.824;4.718;2023-03-11T03:44:59;19.47;;;7.37;;
12707;SDS011;6418;50.824;4.718;2023-03-11T03:47:26;21.27;;;6.90;;
12707;SDS011;6418;50.824;4.718;2023-03-11T03:49:53;17.47;;;7.20;;
12707;SDS011;6418;50.824;4.718;2023-03-11T03:52:21;17.57;;;7.40;;
12707;SDS011;6418;50.824;4.718;2023-03-11T03:54:48;25.17;;;7.17;;
12707;SDS011;6418;50.824;4.718;2023-03-11T03:57:15;20.20;;;6.90;;
12707;SDS011;6418;50.824;4.718;2023-03-11T03:59:42;14.50;;;7.10;;
12707;SDS011;6418;50.824;4.718;2023-03-11T04:02:09;21.73;;;7.20;;
12707;SDS011;6418;50.824;4.718;2023-03-11T04:04:36;23.50;;;7.10;;
12707;SDS011;6418;50.824;4.718;2023-03-11T04:07:03;17.83;;;6.97;;
12707;SDS011;6418;50.824;4.718;2023-03-11T04:09:32;21.03;;;7.47;;
12707;SDS011;6418;50.824;4.718;2023-03-11T04:11:59;20.53;;;7.10;;
12707;SDS011;6418;50.824;4.718;2023-03-11T04:14:26;15.23;;;7.13;;
12707;SDS011;6418;50.824;4.718;2023-03-11T04:16:53;18.53;;;7.00;;
12707;SDS011;6418;50.824;4.718;2023-03-11T04:19:21;21.30;;;7.73;;
12707;SDS011;6418;50.824;4.718;2023-03-11T04:21:48;19.70;;;7.17;;
12707;SDS011;6418;50.824;4.718;2023-03-11T04:24:16;15.87;;;6.67;;
12707;SDS011;6418;50.824;4.718;2023-03-11T04:26:44;19.37;;;7.80;;
12707;SDS011;6418;50.824;4.718;2023-03-11T04:29:11;23.47;;;7.80;;
12707;SDS011;6418;50.824;4.718;2023-03-11T04:31:38;22.17;;;7.30;;
12707;SDS011;6418;50.824;4.718;2023-03-11T04:34:05;19.63;;;7.70;;
12707;SDS011;6418;50.824;4.718;2023-03-11T04:36:32;16.20;;;7.40;;
12707;SDS011;6418;50.824;4.718;2023-03-11T04:38:59;26.53;;;7.67;;
12707;SDS011;6418;50.824;4.718;2023-03-11T04:41:26;20.77;;;7.83;;
12707;SDS011;6418;50.824;4.718;2023-03-11T04:43:54;19.70;;;7.70;;
12707;SDS011;6418;50.824;4.718;2023-03-11T04:46:21;18.07;;;7.80;;
12707;SDS011;6418;50.824;4.718;2023-03-11T04:48:48;20.23;;;8.00;;
12707;SDS011;6418;50.824;4.718;2023-03-11T04:51:15;23.73;;;7.90;;
12707;SDS011;6418;50.824;4.718;2023-03-11T04:53:42;17.53;;;7.43;;
12707;SDS011;6418;50.824;4.718;2023-03-11T04:56:08;23.27;;;7.53;;
12707;SDS011;6418;50.824;4.718;2023-03-11T04:58:35;22.00;;;8.00;;
12707;SDS011;6418;50.824;4.718;2023-03-11T05:01:04;21.30;;;7.70;;
12707;SDS011;6418;50.824;4.718;2023-03-11T05:03:31;18.63;;;8.10;;
12707;SDS011;6418;50.824;4.718;2023-03-11T05:05:57;20.03;;;7.10;;
12707;SDS011;6418;50.824;4.718;2023-03-11T05:08:25;17.57;;;7.80;;
12707;SDS011;6418;50.824;4.718;2023-03-11T05:10:52;17.50;;;7.13;;
12707;SDS011;6418;50.824;4.718;2023-03-11T05:13:19;19.53;;;8.10;;
12707;SDS011;6418;50.824;4.718;2023-03-11T05:15:46;21.93;;;7.27;;
12707;SDS011;6418;50.824;4.718;2023-03-11T05:18:14;18.40;;;7.60;;
12707;SDS011;6418;50.824;4.718;2023-03-11T05:20:41;23.43;;;7.67;;
12707;SDS011;6418;50.824;4.718;2023-03-11T05:23:08;19.40;;;7.20;;
12707;SDS011;6418;50.824;4.718;2023-03-11T05:25:35;15.90;;;7.27;;
12707;SDS011;6418;50.824;4.718;2023-03-11T05:28:02;22.80;;;8.03;;
12707;SDS011;6418;50.824;4.718;2023-03-11T05:30:29;19.80;;;7.57;;
12707;SDS011;6418;50.824;4.718;2023-03-11T05:32:56;21.53;;;7.50;;
12707;SDS011;6418;50.824;4.718;2023-03-11T05:35:24;19.03;;;7.30;;
12707;SDS011;6418;50.824;4.718;2023-03-11T05:37:51;16.83;;;6.80;;
12707;SDS011;6418;50.824;4.718;2023-03-11T05:40:19;17.40;;;7.50;;
12707;SDS011;6418;50.824;4.718;2023-03-11T05:42:46;18.50;;;7.67;;
12707;SDS011;6418;50.824;4.718;2023-03-11T05:45:13;21.10;;;7.37;;
12707;SDS011;6418;50.824;4.718;2023-03-11T05:47:40;16.27;;;7.27;;
12707;SDS011;6418;50.824;4.718;2023-03-11T05:50:08;18.30;;;7.40;;
12707;SDS011;6418;50.824;4.718;2023-03-11T05:52:37;16.50;;;7.47;;
12707;SDS011;6418;50.824;4.718;2023-03-11T05:55:04;15.30;;;7.20;;
12707;SDS011;6418;50.824;4.718;2023-03-11T05:57:33;19.27;;;7.40;;
12707;SDS011;6418;50.824;4.718;2023-03-11T06:00:00;16.20;;;7.20;;
12707;SDS011;6418;50.824;4.718;2023-03-11T06:02:29;17.83;;;7.30;;
12707;SDS011;6418;50.824;4.718;2023-03-11T06:04:56;18.30;;;7.50;;
12707;SDS011;6418;50.824;4.718;2023-03-11T06:07:23;16.33;;;7.23;;
12707;SDS011;6418;50.824;4.718;2023-03-11T06:09:51;19.23;;;7.40;;
12707;SDS011;6418;50.824;4.718;2023-03-11T06:12:18;17.40;;;7.60;;
12707;SDS011;6418;50.824;4.718;2023-03-11T06:14:45;22.50;;;8.27;;
12707;SDS011;6418;50.824;4.718;2023-03-11T06:17:12;17.67;;;7.53;;
12707;SDS011;6418;50.824;4.718;2023-03-11T06:19:39;19.43;;;8.00;;
12707;SDS011;6418;50.824;4.718;2023-03-11T06:22:06;20.03;;;7.43;;
12707;SDS011;6418;50.824;4.718;2023-03-11T06:24:33;18.03;;;7.60;;
12707;SDS011;6418;50.824;4.718;2023-03-11T06:27:01;17.43;;;7.90;;
12707;SDS011;6418;50.824;4.718;2023-03-11T06:29:28;17.40;;;7.57;;
12707;SDS011;6418;50.824;4.718;2023-03-11T06:31:55;24.30;;;9.10;;
12707;SDS011;6418;50.824;4.718;2023-03-11T06:34:22;20.53;;;8.13;;
12707;SDS011;6418;50.824;4.718;2023-03-11T06:36:48;21.70;;;8.63;;
12707;SDS011;6418;50.824;4.718;2023-03-11T06:39:15;19.60;;;8.27;;
12707;SDS011;6418;50.824;4.718;2023-03-11T06:41:42;18.37;;;8.03;;
12707;SDS011;6418;50.824;4.718;2023-03-11T06:44:11;19.83;;;8.87;;
12707;SDS011;6418;50.824;4.718;2023-03-11T06:46:38;19.23;;;8.87;;
12707;SDS011;6418;50.824;4.718;2023-03-11T06:49:05;20.90;;;8.63;;
12707;SDS011;6418;50.824;4.718;2023-03-11T06:51:32;19.13;;;8.30;;
12707;SDS011;6418;50.824;4.718;2023-03-11T06:53:59;20.13;;;8.60;;
12707;SDS011;6418;50.824;4.718;2023-03-11T06:56:26;23.73;;;10.93;;
12707;SDS011;6418;50.824;4.718;2023-03-11T06:58:53;23.90;;;11.40;;
12707;SDS011;6418;50.824;4.718;2023-03-11T07:01:21;26.03;;;11.40;;
12707;SDS011;6418;50.824;4.718;2023-03-11T07:03:50;24.83;;;10.97;;
12707;SDS011;6418;50.824;4.718;2023-03-11T07:06:18;24.43;;;10.90;;
12707;SDS011;6418;50.824;4.718;2023-03-11T07:08:46;25.70;;;10.00;;
12707;SDS011;6418;50.824;4.718;2023-03-11T07:11:14;25.10;;;9.93;;
12707;SDS011;6418;50.824;4.718;2023-03-11T07:13:43;22.73;;;9.63;;
12707;SDS011;6418;50.824;4.718;2023-03-11T07:16:11;19.37;;;9.70;;
12707;SDS011;6418;50.824;4.718;2023-03-11T07:18:42;21.17;;;9.37;;
12707;SDS011;6418;50.824;4.718;2023-03-11T07:21:10;20.10;;;10.07;;
12707;SDS011;6418;50.824;4.718;2023-03-11T07:23:39;25.80;;;10.23;;
12707;SDS011;6418;50.824;4.718;2023-03-11T07:26:07;20.63;;;9.97;;
12707;SDS011;6418;50.824;4.718;2023-03-11T07:28:35;25.97;;;10.87;;
12707;SDS011;6418;50.824;4.718;2023-03-11T07:31:05;19.40;;;10.17;;
12707;SDS011;6418;50.824;4.718;2023-03-11T07:33:33;27.10;;;10.10;;
12707;SDS011;6418;50.824;4.718;2023-03-11T07:36:05;26.07;;;10.77;;
12707;SDS011;6418;50.824;4.718;2023-03-11T07:38:33;24.57;;;10.60;;
12707;SDS011;6418;50.824;4.718;2023-03-11T07:41:00;22.97;;;10.27;;
12707;SDS011;6418;50.824;4.718;2023-03-11T07:43:27;23.10;;;11.20;;
12707;SDS011;6418;50.824;4.718;2023-03-11T07:46:01;23.90;;;10.67;;
12707;SDS011;6418;50.824;4.718;2023-03-11T07:48:29;23.13;;;10.83;;
12707;SDS011;6418;50.824;4.718;2023-03-11T07:50:59;27.30;;;10.63;;
12707;SDS011;6418;50.824;4.718;2023-03-11T07:53:29;25.47;;;11.10;;
12707;SDS011;6418;50.824;4.718;2023-03-11T07:55:56;26.40;;;11.07;;
12707;SDS011;6418;50.824;4.718;2023-03-11T07:58:23;26.07;;;12.07;;
12707;SDS011;6418;50.824;4.718;2023-03-11T08:00:50;27.67;;;12.20;;
12707;SDS011;6418;50.824;4.718;2023-03-11T08:03:18;23.97;;;11.23;;
12707;SDS011;6418;50.824;4.718;2023-03-11T08:05:45;27.50;;;12.90;;
12707;SDS011;6418;50.824;4.718;2023-03-11T08:08:12;29.00;;;13.73;;
12707;SDS011;6418;50.824;4.718;2023-03-11T08:10:40;29.10;;;13.03;;
12707;SDS011;6418;50.824;4.718;2023-03-11T08:13:07;24.73;;;12.33;;
12707;SDS011;6418;50.824;4.718;2023-03-11T08:15:35;27.57;;;12.80;;
12707;SDS011;6418;50.824;4.718;2023-03-11T08:18:02;33.20;;;12.97;;
12707;SDS011;6418;50.824;4.718;2023-03-11T08:20:30;25.93;;;12.90;;
12707;SDS011;6418;50.824;4.718;2023-03-11T08:22:57;28.43;;;12.63;;
12707;SDS011;6418;50.824;4.718;2023-03-11T08:25:24;28.03;;;13.87;;
12707;SDS011;6418;50.824;4.718;2023-03-11T08:27:52;27.13;;;12.27;;
12707;SDS011;6418;50.824;4.718;2023-03-11T08:30:19;26.73;;;13.10;;
12707;SDS011;6418;50.824;4.718;2023-03-11T08:32:47;26.27;;;12.67;;
12707;SDS011;6418;50.824;4.718;2023-03-11T08:35:14;31.07;;;14.13;;
12707;SDS011;6418;50.824;4.718;2023-03-11T08:37:42;33.20;;;12.93;;
12707;SDS011;6418;50.824;4.718;2023-03-11T08:40:09;23.87;;;12.57;;
12707;SDS011;6418;50.824;4.718;2023-03-11T08:42:37;28.57;;;12.97;;
12707;SDS011;6418;50.824;4.718;2023-03-11T08:45:06;35.40;;;14.07;;
12707;SDS011;6418;50.824;4.718;2023-03-11T08:47:34;33.20;;;13.33;;
12707;SDS011;6418;50.824;4.718;2023-03-11T08:50:02;31.53;;;13.20;;
12707;SDS011;6418;50.824;4.718;2023-03-11T08:52:29;31.03;;;14.47;;
12707;SDS011;6418;50.824;4.718;2023-03-11T08:54:56;31.17;;;13.93;;
12707;SDS011;6418;50.824;4.718;2023-03-11T08:57:23;33.67;;;14.37;;
12707;SDS011;6418;50.824;4.718;2023-03-11T08:59:49;30.80;;;13.97;;
12707;SDS011;6418;50.824;4.718;2023-03-11T09:02:18;37.67;;;12.90;;
12707;SDS011;6418;50.824;4.718;2023-03-11T09:04:45;31.10;;;13.13;;
12707;SDS011;6418;50.824;4.718;2023-03-11T09:07:11;25.97;;;12.30;;
12707;SDS011;6418;50.824;4.718;2023-03-11T09:09:39;30.10;;;10.40;;
12707;SDS011;6418;50.824;4.718;2023-03-11T09:12:07;24.43;;;10.40;;
12707;SDS011;6418;50.824;4.718;2023-03-11T09:14:37;24.27;;;8.87;;
12707;SDS011;6418;50.824;4.718;2023-03-11T09:17:04;22.17;;;9.77;;
12707;SDS011;6418;50.824;4.718;2023-03-11T09:19:33;15.83;;;7.07;;
12707;SDS011;6418;50.824;4.718;2023-03-11T09:22:00;16.60;;;5.40;;
12707;SDS011;6418;50.824;4.718;2023-03-11T09:24:27;19.90;;;6.20;;
12707;SDS011;6418;50.824;4.718;2023-03-11T09:26:54;15.07;;;6.10;;
12707;SDS011;6418;50.824;4.718;2023-03-11T09:29:21;18.37;;;6.33;;
12707;SDS011;6418;50.824;4.718;2023-03-11T09:31:47;17.87;;;6.17;;
12707;SDS011;6418;50.824;4.718;2023-03-11T09:34:14;15.23;;;5.57;;
12707;SDS011;6418;50.824;4.718;2023-03-11T09:36:43;13.20;;;4.43;;
12707;SDS011;6418;50.824;4.718;2023-03-11T09:39:10;14.23;;;4.33;;
12707;SDS011;6418;50.824;4.718;2023-03-11T09:41:38;9.80;;;3.63;;
12707;SDS011;6418;50.824;4.718;2023-03-11T09:44:12;8.07;;;3.70;;
12707;SDS011;6418;50.824;4.718;2023-03-11T09:50:08;10.10;;;4.27;;
12707;SDS011;6418;50.824;4.718;2023-03-11T09:52:50;15.77;;;4.17;;
12707;SDS011;6418;50.824;4.718;2023-03-11T09:55:28;13.87;;;3.83;;
12707;SDS011;6418;50.824;4.718;2023-03-11T09:57:59;12.83;;;4.17;;
12707;SDS011;6418;50.824;4.718;2023-03-11T10:00:29;11.43;;;4.33;;
12707;SDS011;6418;50.824;4.718;2023-03-11T10:02:57;15.33;;;5.03;;
12707;SDS011;6418;50.824;4.718;2023-03-11T10:05:26;14.27;;;5.00;;
12707;SDS011;6418;50.824;4.718;2023-03-11T10:07:59;16.33;;;5.30;;
12707;SDS011;6418;50.824;4.718;2023-03-11T10:10:37;18.13;;;5.10;;
12707;SDS011;6418;50.824;4.718;2023-03-11T10:13:09;13.00;;;4.70;;
12707;SDS011;6418;50.824;4.718;2023-03-11T10:15:44;15.23;;;4.83;;
12707;SDS011;6418;50.824;4.718;2023-03-11T10:18:20;16.80;;;4.80;;
12707;SDS011;6418;50.824;4.718;2023-03-11T10:20:55;17.57;;;4.90;;
12707;SDS011;6418;50.824;4.718;2023-03-11T10:23:28;12.63;;;4.83;;
12707;SDS011;6418;50.824;4.718;2023-03-11T10:26:05;14.27;;;4.63;;
12707;SDS011;6418;50.824;4.718;2023-03-11T10:28:39;13.77;;;4.93;;
12707;SDS011;6418;50.824;4.718;2023-03-11T10:31:14;11.53;;;4.43;;
12707;SDS011;6418;50.824;4.718;2023-03-11T10:33:47;12.83;;;4.80;;
12707;SDS011;6418;50.824;4.718;2023-03-11T10:36:18;16.07;;;4.40;;
12707;SDS011;6418;50.824;4.718;2023-03-11T10:38:50;14.77;;;4.53;;
12707;SDS011;6418;50.824;4.718;2023-03-11T10:41:20;14.07;;;4.27;;
12707;SDS011;6418;50.824;4.718;2023-03-11T10:43:53;12.63;;;4.37;;
12707;SDS011;6418;50.824;4.718;2023-03-11T10:46:27;10.57;;;4.27;;
12707;SDS011;6418;50.824;4.718;2023-03-11T10:48:54;12.93;;;4.50;;
12707;SDS011;6418;50.824;4.718;2023-03-11T10:51:22;12.23;;;4.23;;
12707;SDS011;6418;50.824;4.718;2023-03-11T10:53:53;16.90;;;4.60;;
12707;SDS011;6418;50.824;4.718;2023-03-11T10:56:26;13.17;;;4.43;;
12707;SDS011;6418;50.824;4.718;2023-03-11T10:58:55;17.73;;;4.47;;
12707;SDS011;6418;50.824;4.718;2023-03-11T11:01:23;18.23;;;4.80;;
12707;SDS011;6418;50.824;4.718;2023-03-11T11:03:51;15.10;;;4.37;;
12707;SDS011;6418;50.824;4.718;2023-03-11T11:06:21;13.70;;;4.63;;
12707;SDS011;6418;50.824;4.718;2023-03-11T11:09:04;11.60;;;4.53;;
12707;SDS011;6418;50.824;4.718;2023-03-11T11:11:40;15.27;;;4.40;;
12707;SDS011;6418;50.824;4.718;2023-03-11T11:14:08;14.17;;;3.97;;
12707;SDS011;6418;50.824;4.718;2023-03-11T11:16:35;15.43;;;4.47;;
12707;SDS011;6418;50.824;4.718;2023-03-11T11:19:03;19.07;;;4.60;;
12707;SDS011;6418;50.824;4.718;2023-03-11T11:21:35;10.60;;;4.30;;
12707;SDS011;6418;50.824;4.718;2023-03-11T11:24:09;14.13;;;3.97;;
12707;SDS011;6418;50.824;4.718;2023-03-11T11:29:29;13.37;;;4.10;;
12707;SDS011;6418;50.824;4.718;2023-03-11T11:32:09;10.53;;;4.17;;
12707;SDS011;6418;50.824;4.718;2023-03-11T11:34:43;14.73;;;4.90;;
12707;SDS011;6418;50.824;4.718;2023-03-11T11:37:20;11.23;;;4.30;;
12707;SDS011;6418;50.824;4.718;2023-03-11T11:39:50;13.23;;;4.43;;
12707;SDS011;6418;50.824;4.718;2023-03-11T11:42:20;13.10;;;4.93;;
12707;SDS011;6418;50.824;4.718;2023-03-11T11:44:51;13.37;;;4.53;;
12707;SDS011;6418;50.824;4.718;2023-03-11T11:47:23;14.67;;;4.43;;
12707;SDS011;6418;50.824;4.718;2023-03-11T11:49:53;10.87;;;4.20;;
12707;SDS011;6418;50.824;4.718;2023-03-11T11:52:24;11.53;;;4.13;;
12707;SDS011;6418;50.824;4.718;2023-03-11T11:54:57;10.00;;;4.00;;
12707;SDS011;6418;50.824;4.718;2023-03-11T11:57:28;14.40;;;4.60;;
12707;SDS011;6418;50.824;4.718;2023-03-11T11:59:55;14.47;;;4.40;;
12707;SDS011;6418;50.824;4.718;2023-03-11T12:02:26;8.73;;;4.00;;
12707;SDS011;6418;50.824;4.718;2023-03-11T12:05:09;8.83;;;4.13;;
12707;SDS011;6418;50.824;4.718;2023-03-11T12:10:35;9.40;;;4.17;;
12707;SDS011;6418;50.824;4.718;2023-03-11T12:13:13;12.03;;;4.13;;
12707;SDS011;6418;50.824;4.718;2023-03-11T12:16:08;9.17;;;3.93;;
12707;SDS011;6418;50.824;4.718;2023-03-11T12:18:42;8.40;;;3.60;;
12707;SDS011;6418;50.824;4.718;2023-03-11T12:21:16;13.90;;;4.60;;
12707;SDS011;6418;50.824;4.718;2023-03-11T12:23:57;12.30;;;3.70;;
12707;SDS011;6418;50.824;4.718;2023-03-11T12:26:35;10.43;;;3.80;;
12707;SDS011;6418;50.824;4.718;2023-03-11T12:29:06;8.97;;;3.77;;
12707;SDS011;6418;50.824;4.718;2023-03-11T12:31:37;10.83;;;3.63;;
12707;SDS011;6418;50.824;4.718;2023-03-11T12:34:05;15.07;;;4.17;;
12707;SDS011;6418;50.824;4.718;2023-03-11T12:36:37;10.37;;;3.70;;
12707;SDS011;6418;50.824;4.718;2023-03-11T12:39:06;11.03;;;3.53;;
12707;SDS011;6418;50.824;4.718;2023-03-11T12:41:46;12.40;;;3.80;;
12707;SDS011;6418;50.824;4.718;2023-03-11T12:44:21;8.13;;;3.73;;
12707;SDS011;6418;50.824;4.718;2023-03-11T12:49:56;10.03;;;3.77;;
12707;SDS011;6418;50.824;4.718;2023-03-11T12:53:01;9.70;;;3.20;;
12707;SDS011;6418;50.824;4.718;2023-03-11T12:55:29;7.70;;;3.50;;
12707;SDS011;6418;50.824;4.718;2023-03-11T12:58:06;10.43;;;3.63;;
12707;SDS011;6418;50.824;4.718;2023-03-11T13:03:56;7.33;;;3.50;;
12707;SDS011;6418;50.824;4.718;2023-03-11T13:06:35;10.57;;;3.90;;
12707;SDS011;6418;50.824;4.718;2023-03-11T13:09:16;9.97;;;3.77;;
12707;SDS011;6418;50.824;4.718;2023-03-11T13:11:44;12.50;;;3.80;;
12707;SDS011;6418;50.824;4.718;2023-03-11T13:14:25;11.33;;;3.73;;
12707;SDS011;6418;50.824;4.718;2023-03-11T13:16:54;6.80;;;3.43;;
12707;SDS011;6418;50.824;4.718;2023-03-11T13:19:35;9.60;;;3.70;;
12707;SDS011;6418;50.824;4.718;2023-03-11T13:25:31;10.20;;;3.67;;
12707;SDS011;6418;50.824;4.718;2023-03-11T13:30:50;10.23;;;3.57;;
12707;SDS011;6418;50.824;4.718;2023-03-11T13:33:27;6.47;;;3.07;;
12707;SDS011;6418;50.824;4.718;2023-03-11T13:36:07;6.07;;;3.33;;
12707;SDS011;6418;50.824;4.718;2023-03-11T13:41:40;7.97;;;3.40;;
12707;SDS011;6418;50.824;4.718;2023-03-11T13:44:13;4.83;;;3.03;;
12707;SDS011;6418;50.824;4.718;2023-03-11T13:46:51;7.47;;;3.00;;
12707;SDS011;6418;50.824;4.718;2023-03-11T13:49:24;8.00;;;3.07;;
12707;SDS011;6418;50.824;4.718;2023-03-11T13:51:55;6.13;;;2.93;;
12707;SDS011;6418;50.824;4.718;2023-03-11T13:54:31;9.67;;;3.40;;
12707;SDS011;6418;50.824;4.718;2023-03-11T13:57:03;8.77;;;3.20;;
12707;SDS011;6418;50.824;4.718;2023-03-11T13:59:31;7.27;;;3.43;;
12707;SDS011;6418;50.824;4.718;2023-03-11T14:02:10;7.03;;;3.17;;
12707;SDS011;6418;50.824;4.718;2023-03-11T14:04:44;8.07;;;3.20;;
12707;SDS011;6418;50.824;4.718;2023-03-11T14:07:18;8.87;;;3.30;;
12707;SDS011;6418;50.824;4.718;2023-03-11T14:09:48;8.63;;;3.40;;
12707;SDS011;6418;50.824;4.718;2023-03-11T14:12:15;12.07;;;3.70;;
12707;SDS011;6418;50.824;4.718;2023-03-11T14:14:44;10.80;;;3.70;;
12707;SDS011;6418;50.824;4.718;2023-03-11T14:17:16;7.20;;;3.30;;
12707;SDS011;6418;50.824;4.718;2023-03-11T14:22:28;7.37;;;3.37;;
12707;SDS011;6418;50.824;4.718;2023-03-11T14:24:56;7.43;;;3.40;;
12707;SDS011;6418;50.824;4.718;2023-03-11T14:27:23;8.43;;;3.60;;
12707;SDS011;6418;50.824;4.718;2023-03-11T14:29:50;5.93;;;3.43;;
12707;SDS011;6418;50.824;4.718;2023-03-11T14:32:24;9.40;;;3.53;;
12707;SDS011;6418;50.824;4.718;2023-03-11T14:34:53;7.60;;;3.20;;
12707;SDS011;6418;50.824;4.718;2023-03-11T14:37:24;7.93;;;3.27;;
12707;SDS011;6418;50.824;4.718;2023-03-11T14:39:55;6.67;;;3.50;;
12707;SDS011;6418;50.824;4.718;2023-03-11T14:42:22;4.50;;;3.20;;
12707;SDS011;6418;50.824;4.718;2023-03-11T14:44:54;9.80;;;3.23;;
12707;SDS011;6418;50.824;4.718;2023-03-11T14:47:30;5.67;;;3.60;;
12707;SDS011;6418;50.824;4.718;2023-03-11T14:50:00;10.70;;;3.23;;
12707;SDS011;6418;50.824;4.718;2023-03-11T14:52:29;7.63;;;3.57;;
12707;SDS011;6418;50.824;4.718;2023-03-11T14:55:01;8.87;;;4.00;;
12707;SDS011;6418;50.824;4.718;2023-03-11T14:57:33;8.70;;;3.50;;
12707;SDS011;6418;50.824;4.718;2023-03-11T15:00:03;7.70;;;3.40;;
12707;SDS011;6418;50.824;4.718;2023-03-11T15:02:48;11.43;;;3.50;;
12707;SDS011;6418;50.824;4.718;2023-03-11T15:05:30;8.57;;;3.20;;
12707;SDS011;6418;50.824;4.718;2023-03-11T15:08:02;10.27;;;3.30;;
12707;SDS011;6418;50.824;4.718;2023-03-11T15:10:31;8.37;;;3.70;;
12707;SDS011;6418;50.824;4.718;2023-03-11T15:13:06;9.00;;;3.73;;
12707;SDS011;6418;50.824;4.718;2023-03-11T15:15:35;11.67;;;3.70;;
12707;SDS011;6418;50.824;4.718;2023-03-11T15:18:14;12.50;;;3.60;;
12707;SDS011;6418;50.824;4.718;2023-03-11T15:20:46;10.37;;;3.40;;
12707;SDS011;6418;50.824;4.718;2023-03-11T15:23:27;7.83;;;3.30;;
12707;SDS011;6418;50.824;4.718;2023-03-11T15:25:54;11.50;;;3.90;;
12707;SDS011;6418;50.824;4.718;2023-03-11T15:28:22;9.37;;;3.70;;
12707;SDS011;6418;50.824;4.718;2023-03-11T15:30:49;6.97;;;3.60;;
12707;SDS011;6418;50.824;4.718;2023-03-11T15:33:21;9.20;;;3.67;;
12707;SDS011;6418;50.824;4.718;2023-03-11T15:35:49;7.07;;;3.80;;